Terminal Aerodrome Forecast
Issued by NWS

Home | Current Version | Previous Version | Text Only | Print | Product List | Glossary Off
Versions: 1 2 3 4 5 6 7 8 9 10 11 12 13 14 15 16 17 18 19 20

000
FTUS43 KTOP 130500
TAFFOE
TAF
KFOE 130520Z 1306/1406 16008KT P6SM BKN200
     FM131000 19009KT P6SM OVC015
     FM131800 34019G30KT 4SM -TSRA OVC035CB=

USA.gov is the U.S. government's official web portal to all federal, state and local government web resources and services.